sensor_id;sensor_type;location;lat;lon;timestamp;pressure;altitude;pressure_sealevel;temperature;humidity
21781;BME280;52576;53.614;9.894;2022-10-17T00:00:25;101502.94;;;11.54;100.00
21781;BME280;52576;53.614;9.894;2022-10-17T00:01:28;101505.63;;;11.54;100.00
21781;BME280;52576;53.614;9.894;2022-10-17T00:02:30;101501.06;;;11.54;100.00
21781;BME280;52576;53.614;9.894;2022-10-17T00:03:34;101514.47;;;11.54;100.00
21781;BME280;52576;53.614;9.894;2022-10-17T00:04:36;101504.59;;;11.55;100.00
21781;BME280;52576;53.614;9.894;2022-10-17T00:05:40;101505.63;;;11.54;100.00
21781;BME280;52576;53.614;9.894;2022-10-17T00:06:42;101517.13;;;11.54;100.00
21781;BME280;52576;53.614;9.894;2022-10-17T00:07:47;101521.50;;;11.55;100.00
21781;BME280;52576;53.614;9.894;2022-10-17T00:08:49;101523.34;;;11.55;100.00
21781;BME280;52576;53.614;9.894;2022-10-17T00:09:51;101523.34;;;11.55;100.00
21781;BME280;52576;53.614;9.894;2022-10-17T00:10:55;101521.69;;;11.54;100.00
21781;BME280;52576;53.614;9.894;2022-10-17T00:11:59;101527.03;;;11.54;100.00
21781;BME280;52576;53.614;9.894;2022-10-17T00:13:01;101529.72;;;11.54;100.00
21781;BME280;52576;53.614;9.894;2022-10-17T00:14:04;101528.03;;;11.53;100.00
21781;BME280;52576;53.614;9.894;2022-10-17T00:15:07;101525.38;;;11.53;100.00
21781;BME280;52576;53.614;9.894;2022-10-17T00:16:10;101525.75;;;11.50;100.00
21781;BME280;52576;53.614;9.894;2022-10-17T00:17:12;101532.41;;;11.54;100.00
21781;BME280;52576;53.614;9.894;2022-10-17T00:18:16;101531.38;;;11.55;100.00
21781;BME280;52576;53.614;9.894;2022-10-17T00:19:18;101527.84;;;11.54;100.00
21781;BME280;52576;53.614;9.894;2022-10-17T00:20:20;101527.03;;;11.54;100.00
21781;BME280;52576;53.614;9.894;2022-10-17T00:21:23;101525.19;;;11.54;100.00
21781;BME280;52576;53.614;9.894;2022-10-17T00:22:26;101527.84;;;11.54;100.00
21781;BME280;52576;53.614;9.894;2022-10-17T00:23:30;101529.53;;;11.55;100.00
21781;BME280;52576;53.614;9.894;2022-10-17T00:24:32;101531.38;;;11.55;100.00
21781;BME280;52576;53.614;9.894;2022-10-17T00:25:34;101529.53;;;11.55;100.00
21781;BME280;52576;53.614;9.894;2022-10-17T00:26:38;101535.69;;;11.56;100.00
21781;BME280;52576;53.614;9.894;2022-10-17T00:27:40;101542.94;;;11.55;100.00
21781;BME280;52576;53.614;9.894;2022-10-17T00:28:45;101530.72;;;11.53;100.00
21781;BME280;52576;53.614;9.894;2022-10-17T00:29:47;101539.41;;;11.55;100.00
21781;BME280;52576;53.614;9.894;2022-10-17T00:30:54;101541.88;;;11.56;100.00
21781;BME280;52576;53.614;9.894;2022-10-17T00:31:56;101539.84;;;11.58;100.00
21781;BME280;52576;53.614;9.894;2022-10-17T00:32:59;101544.38;;;11.58;100.00
21781;BME280;52576;53.614;9.894;2022-10-17T00:34:01;101535.34;;;11.59;100.00
21781;BME280;52576;53.614;9.894;2022-10-17T00:35:05;101543.19;;;11.60;100.00
21781;BME280;52576;53.614;9.894;2022-10-17T00:36:09;101528.69;;;11.55;100.00
21781;BME280;52576;53.614;9.894;2022-10-17T00:37:13;101534.09;;;11.61;100.00
21781;BME280;52576;53.614;9.894;2022-10-17T00:38:15;101532.47;;;11.60;100.00
21781;BME280;52576;53.614;9.894;2022-10-17T00:39:20;101534.31;;;11.60;100.00
21781;BME280;52576;53.614;9.894;2022-10-17T00:40:22;101542.72;;;11.57;100.00
21781;BME280;52576;53.614;9.894;2022-10-17T00:41:27;101538.63;;;11.61;100.00
21781;BME280;52576;53.614;9.894;2022-10-17T00:42:29;101539.66;;;11.60;100.00
21781;BME280;52576;53.614;9.894;2022-10-17T00:43:48;101532.66;;;11.59;100.00
21781;BME280;52576;53.614;9.894;2022-10-17T00:45:13;101539.66;;;11.60;100.00
21781;BME280;52576;53.614;9.894;2022-10-17T00:46:17;101532.66;;;11.59;100.00
21781;BME280;52576;53.614;9.894;2022-10-17T00:47:21;101534.69;;;11.57;100.00
21781;BME280;52576;53.614;9.894;2022-10-17T00:48:24;101542.72;;;11.57;100.00
21781;BME280;52576;53.614;9.894;2022-10-17T00:49:29;101534.38;;;11.45;100.00
21781;BME280;52576;53.614;9.894;2022-10-17T00:50:34;101547.25;;;11.56;100.00
21781;BME280;52576;53.614;9.894;2022-10-17T00:51:40;101535.69;;;11.56;100.00
21781;BME280;52576;53.614;9.894;2022-10-17T00:52:45;101534.03;;;11.55;100.00
21781;BME280;52576;53.614;9.894;2022-10-17T00:53:49;101541.44;;;11.53;100.00
21781;BME280;52576;53.614;9.894;2022-10-17T00:54:56;101537.75;;;11.54;100.00
21781;BME280;52576;53.614;9.894;2022-10-17T00:56:00;101537.75;;;11.54;100.00
21781;BME280;52576;53.614;9.894;2022-10-17T00:57:03;101529.88;;;11.52;100.00
21781;BME280;52576;53.614;9.894;2022-10-17T00:58:06;101541.44;;;11.53;100.00
21781;BME280;52576;53.614;9.894;2022-10-17T00:59:10;101549.22;;;11.48;100.00
21781;BME280;52576;53.614;9.894;2022-10-17T01:00:13;101541.63;;;11.51;100.00
21781;BME280;52576;53.614;9.894;2022-10-17T01:01:17;101549.66;;;11.51;100.00
21781;BME280;52576;53.614;9.894;2022-10-17T01:02:20;101551.16;;;11.54;100.00
21781;BME280;52576;53.614;9.894;2022-10-17T01:03:23;101556.50;;;11.54;100.00
21781;BME280;52576;53.614;9.894;2022-10-17T01:04:25;101563.50;;;11.55;100.00
21781;BME280;52576;53.614;9.894;2022-10-17T01:05:28;101559.19;;;11.54;100.00
21781;BME280;52576;53.614;9.894;2022-10-17T01:06:31;101561.69;;;11.55;100.00
21781;BME280;52576;53.614;9.894;2022-10-17T01:07:34;101571.34;;;11.56;100.00
21781;BME280;52576;53.614;9.894;2022-10-17T01:08:38;101568.69;;;11.56;100.00
21781;BME280;52576;53.614;9.894;2022-10-17T01:09:42;101566.84;;;11.57;100.00
21781;BME280;52576;53.614;9.894;2022-10-17T01:10:54;101574.69;;;11.58;100.00
21781;BME280;52576;53.614;9.894;2022-10-17T01:12:10;101571.16;;;11.58;100.00
21781;BME280;52576;53.614;9.894;2022-10-17T01:13:23;101574.69;;;11.58;100.00
21781;BME280;52576;53.614;9.894;2022-10-17T01:14:31;101565.81;;;11.58;100.00
21781;BME280;52576;53.614;9.894;2022-10-17T01:15:46;101574.50;;;11.60;100.00
21781;BME280;52576;53.614;9.894;2022-10-17T01:16:59;101563.72;;;11.53;100.00
21781;BME280;52576;53.614;9.894;2022-10-17T01:18:10;101565.41;;;11.61;100.00
21781;BME280;52576;53.614;9.894;2022-10-17T01:19:38;101554.69;;;11.61;100.00
21781;BME280;52576;53.614;9.894;2022-10-17T01:22:18;101551.03;;;11.62;100.00
21781;BME280;52576;53.614;9.894;2022-10-17T01:24:06;101541.09;;;11.62;100.00
21781;BME280;52576;53.614;9.894;2022-10-17T01:25:27;101541.09;;;11.62;100.00
21781;BME280;52576;53.614;9.894;2022-10-17T01:26:43;101538.44;;;11.62;100.00
21781;BME280;52576;53.614;9.894;2022-10-17T01:28:00;101541.50;;;11.59;100.00
21781;BME280;52576;53.614;9.894;2022-10-17T01:29:27;101536.97;;;11.60;100.00
21781;BME280;52576;53.614;9.894;2022-10-17T01:30:54;101537.44;;;11.63;100.00
21781;BME280;52576;53.614;9.894;2022-10-17T01:32:01;101539.94;;;11.65;100.00
21781;BME280;52576;53.614;9.894;2022-10-17T01:33:09;101536.44;;;11.64;100.00
21781;BME280;52576;53.614;9.894;2022-10-17T01:34:17;101530.88;;;11.66;100.00
21781;BME280;52576;53.614;9.894;2022-10-17T01:35:26;101537.06;;;11.66;100.00
21781;BME280;52576;53.614;9.894;2022-10-17T01:36:38;101535.44;;;11.65;100.00
21781;BME280;52576;53.614;9.894;2022-10-17T01:37:47;101533.38;;;11.67;100.00
21781;BME280;52576;53.614;9.894;2022-10-17T01:39:01;101534.19;;;11.68;100.00
21781;BME280;52576;53.614;9.894;2022-10-17T01:40:08;101536.03;;;11.67;100.00
21781;BME280;52576;53.614;9.894;2022-10-17T01:41:17;101542.88;;;11.70;100.00
21781;BME280;52576;53.614;9.894;2022-10-17T01:42:30;101539.16;;;11.71;100.00
21781;BME280;52576;53.614;9.894;2022-10-17T01:43:36;101540.84;;;11.72;100.00
21781;BME280;52576;53.614;9.894;2022-10-17T01:44:45;101530.94;;;11.72;100.00
21781;BME280;52576;53.614;9.894;2022-10-17T01:45:52;101518.38;;;11.73;100.00
21781;BME280;52576;53.614;9.894;2022-10-17T01:47:00;101513.66;;;11.75;100.00
21781;BME280;52576;53.614;9.894;2022-10-17T01:48:09;101513.47;;;11.76;100.00
21781;BME280;52576;53.614;9.894;2022-10-17T01:49:16;101510.78;;;11.76;100.00
21781;BME280;52576;53.614;9.894;2022-10-17T01:50:23;101515.31;;;11.76;100.00
21781;BME280;52576;53.614;9.894;2022-10-17T01:51:30;101521.31;;;11.78;100.00
21781;BME280;52576;53.614;9.894;2022-10-17T01:52:37;101523.97;;;11.78;100.00
21781;BME280;52576;53.614;9.894;2022-10-17T01:53:44;101525.81;;;11.77;100.00
21781;BME280;52576;53.614;9.894;2022-10-17T01:54:50;101528.94;;;11.81;100.00
21781;BME280;52576;53.614;9.894;2022-10-17T01:55:56;101528.94;;;11.81;100.00
21781;BME280;52576;53.614;9.894;2022-10-17T01:57:03;101521.56;;;11.83;100.00
21781;BME280;52576;53.614;9.894;2022-10-17T01:58:10;101514.94;;;11.79;100.00
21781;BME280;52576;53.614;9.894;2022-10-17T01:59:15;101514.16;;;11.85;100.00
21781;BME280;52576;53.614;9.894;2022-10-17T02:00:22;101515.81;;;11.86;100.00
21781;BME280;52576;53.614;9.894;2022-10-17T02:01:27;101517.47;;;11.87;100.00
21781;BME280;52576;53.614;9.894;2022-10-17T02:02:35;101513.75;;;11.88;100.00
21781;BME280;52576;53.614;9.894;2022-10-17T02:03:38;101504.72;;;11.89;100.00
21781;BME280;52576;53.614;9.894;2022-10-17T02:04:44;101514.41;;;11.90;100.00
21781;BME280;52576;53.614;9.894;2022-10-17T02:05:49;101508.00;;;11.91;100.00
21781;BME280;52576;53.614;9.894;2022-10-17T02:06:52;101498.13;;;11.91;100.00
21781;BME280;52576;53.614;9.894;2022-10-17T02:07:54;101496.28;;;11.92;100.00
21781;BME280;52576;53.614;9.894;2022-10-17T02:08:58;101490.91;;;11.92;100.00
21781;BME280;52576;53.614;9.894;2022-10-17T02:10:00;101493.59;;;11.92;100.00
21781;BME280;52576;53.614;9.894;2022-10-17T02:11:07;101487.41;;;11.91;100.00
21781;BME280;52576;53.614;9.894;2022-10-17T02:12:34;101482.88;;;11.92;100.00
21781;BME280;52576;53.614;9.894;2022-10-17T02:14:10;101488.25;;;11.92;100.00
21781;BME280;52576;53.614;9.894;2022-10-17T02:15:30;101498.13;;;11.91;100.00
21781;BME280;52576;53.614;9.894;2022-10-17T02:16:39;101490.09;;;11.91;100.00
21781;BME280;52576;53.614;9.894;2022-10-17T02:17:52;101491.56;;;11.94;100.00
21781;BME280;52576;53.614;9.894;2022-10-17T02:19:28;101461.94;;;11.81;100.00
21781;BME280;52576;53.614;9.894;2022-10-17T02:20:38;101478.75;;;11.96;100.00
21781;BME280;52576;53.614;9.894;2022-10-17T02:21:44;101482.28;;;11.96;100.00
21781;BME280;52576;53.614;9.894;2022-10-17T02:22:55;101488.28;;;11.98;100.00
21781;BME280;52576;53.614;9.894;2022-10-17T02:24:04;101483.75;;;11.99;100.00
21781;BME280;52576;53.614;9.894;2022-10-17T02:25:12;101478.41;;;11.99;100.00
21781;BME280;52576;53.614;9.894;2022-10-17T02:26:19;101481.69;;;12.01;100.00
21781;BME280;52576;53.614;9.894;2022-10-17T02:27:32;101484.16;;;12.02;100.00
21781;BME280;52576;53.614;9.894;2022-10-17T02:28:42;101479.66;;;12.03;100.00
21781;BME280;52576;53.614;9.894;2022-10-17T02:29:53;101479.44;;;12.04;100.00
21781;BME280;52576;53.614;9.894;2022-10-17T02:31:00;101481.94;;;12.06;100.00
21781;BME280;52576;53.614;9.894;2022-10-17T02:32:06;101466.63;;;12.00;100.00
21781;BME280;52576;53.614;9.894;2022-10-17T02:33:13;101465.63;;;12.07;100.00
21781;BME280;52576;53.614;9.894;2022-10-17T02:34:22;101473.53;;;12.09;100.00
21781;BME280;52576;53.614;9.894;2022-10-17T02:35:29;101475.38;;;12.08;100.00
21781;BME280;52576;53.614;9.894;2022-10-17T02:36:37;101469.81;;;12.10;100.00
21781;BME280;52576;53.614;9.894;2022-10-17T02:37:41;101469.81;;;12.10;100.00
21781;BME280;52576;53.614;9.894;2022-10-17T02:38:46;101459.47;;;12.07;100.00
21781;BME280;52576;53.614;9.894;2022-10-17T02:39:50;101469.81;;;12.10;100.00
21781;BME280;52576;53.614;9.894;2022-10-17T02:40:53;101476.81;;;12.11;100.00
21781;BME280;52576;53.614;9.894;2022-10-17T02:41:59;101471.44;;;12.11;100.00
21781;BME280;52576;53.614;9.894;2022-10-17T02:43:04;101465.06;;;12.12;100.00
21781;BME280;52576;53.614;9.894;2022-10-17T02:44:06;101467.75;;;12.12;100.00
21781;BME280;52576;53.614;9.894;2022-10-17T02:45:11;101472.91;;;12.13;100.00
21781;BME280;52576;53.614;9.894;2022-10-17T02:46:15;101472.09;;;12.13;100.00
21781;BME280;52576;53.614;9.894;2022-10-17T02:47:26;101463.03;;;12.14;100.00
21781;BME280;52576;53.614;9.894;2022-10-17T02:48:35;101459.50;;;12.13;100.00
21781;BME280;52576;53.614;9.894;2022-10-17T02:49:43;101454.78;;;12.15;100.00
21781;BME280;52576;53.614;9.894;2022-10-17T02:50:52;101452.09;;;12.15;100.00
21781;BME280;52576;53.614;9.894;2022-10-17T02:52:03;101444.03;;;12.09;100.00
21781;BME280;52576;53.614;9.894;2022-10-17T02:53:13;101456.22;;;12.18;100.00
21781;BME280;52576;53.614;9.894;2022-10-17T02:54:20;101455.22;;;12.19;100.00
21781;BME280;52576;53.614;9.894;2022-10-17T02:55:25;101456.88;;;12.20;100.00
21781;BME280;52576;53.614;9.894;2022-10-17T02:56:34;101450.66;;;12.19;100.00
21781;BME280;52576;53.614;9.894;2022-10-17T02:57:40;101446.97;;;12.20;100.00
21781;BME280;52576;53.614;9.894;2022-10-17T02:58:46;101447.59;;;12.22;100.00
21781;BME280;52576;53.614;9.894;2022-10-17T02:59:52;101446.78;;;12.22;100.00
21781;BME280;52576;53.614;9.894;2022-10-17T03:00:57;101448.41;;;12.23;100.00
21781;BME280;52576;53.614;9.894;2022-10-17T03:02:02;101450.09;;;12.24;100.00
21781;BME280;52576;53.614;9.894;2022-10-17T03:03:17;101445.53;;;12.24;100.00
21781;BME280;52576;53.614;9.894;2022-10-17T03:04:22;101443.69;;;12.25;100.00
21781;BME280;52576;53.614;9.894;2022-10-17T03:05:26;101441.84;;;12.25;100.00
21781;BME280;52576;53.614;9.894;2022-10-17T03:06:29;101435.44;;;12.26;100.00
21781;BME280;52576;53.614;9.894;2022-10-17T03:07:31;101432.75;;;12.26;100.00
21781;BME280;52576;53.614;9.894;2022-10-17T03:08:34;101434.41;;;12.27;100.00
21781;BME280;52576;53.614;9.894;2022-10-17T03:09:36;101438.75;;;12.28;100.00
21781;BME280;52576;53.614;9.894;2022-10-17T03:10:39;101444.13;;;12.28;100.00
21781;BME280;52576;53.614;9.894;2022-10-17T03:11:42;101446.59;;;12.30;100.00
21781;BME280;52576;53.614;9.894;2022-10-17T03:12:45;101449.09;;;12.31;100.00
21781;BME280;52576;53.614;9.894;2022-10-17T03:13:47;101453.63;;;12.31;100.00
21781;BME280;52576;53.614;9.894;2022-10-17T03:14:50;101445.38;;;12.32;100.00
21781;BME280;52576;53.614;9.894;2022-10-17T03:15:52;101443.53;;;12.33;100.00
21781;BME280;52576;53.614;9.894;2022-10-17T03:16:57;101445.19;;;12.34;100.00
21781;BME280;52576;53.614;9.894;2022-10-17T03:17:59;101450.38;;;12.35;100.00
21781;BME280;52576;53.614;9.894;2022-10-17T03:19:02;101437.75;;;12.36;100.00
21781;BME280;52576;53.614;9.894;2022-10-17T03:20:08;101438.59;;;12.36;100.00
21781;BME280;52576;53.614;9.894;2022-10-17T03:21:11;101434.88;;;12.37;100.00
21781;BME280;52576;53.614;9.894;2022-10-17T03:22:13;101427.22;;;12.34;100.00
21781;BME280;52576;53.614;9.894;2022-10-17T03:23:18;101434.06;;;12.37;100.00
21781;BME280;52576;53.614;9.894;2022-10-17T03:24:21;101434.06;;;12.37;100.00
21781;BME280;52576;53.614;9.894;2022-10-17T03:25:24;101426.22;;;12.35;100.00
21781;BME280;52576;53.614;9.894;2022-10-17T03:26:26;101435.72;;;12.38;100.00
21781;BME280;52576;53.614;9.894;2022-10-17T03:27:30;101441.06;;;12.38;100.00
21781;BME280;52576;53.614;9.894;2022-10-17T03:28:33;101446.44;;;12.38;100.00
21781;BME280;52576;53.614;9.894;2022-10-17T03:29:36;101434.88;;;12.37;100.00
21781;BME280;52576;53.614;9.894;2022-10-17T03:30:40;101431.38;;;12.37;100.00
21781;BME280;52576;53.614;9.894;2022-10-17T03:31:43;101438.16;;;12.33;100.00
21781;BME280;52576;53.614;9.894;2022-10-17T03:32:45;101429.72;;;12.36;100.00
21781;BME280;52576;53.614;9.894;2022-10-17T03:33:48;101435.91;;;12.36;100.00
21781;BME280;52576;53.614;9.894;2022-10-17T03:34:50;101433.22;;;12.36;100.00
21781;BME280;52576;53.614;9.894;2022-10-17T03:35:55;101432.38;;;12.36;100.00
21781;BME280;52576;53.614;9.894;2022-10-17T03:36:57;101430.75;;;12.35;100.00
21781;BME280;52576;53.614;9.894;2022-10-17T03:38:01;101431.59;;;12.35;100.00
21781;BME280;52576;53.614;9.894;2022-10-17T03:39:04;101433.44;;;12.35;100.00
21781;BME280;52576;53.614;9.894;2022-10-17T03:40:08;101434.47;;;12.34;100.00
21781;BME280;52576;53.614;9.894;2022-10-17T03:41:10;101431.16;;;12.32;100.00
21781;BME280;52576;53.614;9.894;2022-10-17T03:42:13;101431.97;;;12.32;100.00
21781;BME280;52576;53.614;9.894;2022-10-17T03:43:15;101428.47;;;12.32;100.00
21781;BME280;52576;53.614;9.894;2022-10-17T03:44:18;101433.00;;;12.31;100.00
21781;BME280;52576;53.614;9.894;2022-10-17T03:45:20;101427.63;;;12.31;100.00
21781;BME280;52576;53.614;9.894;2022-10-17T03:46:23;101428.69;;;12.30;100.00
21781;BME280;52576;53.614;9.894;2022-10-17T03:47:27;101429.47;;;12.31;100.00
21781;BME280;52576;53.614;9.894;2022-10-17T03:48:31;101424.31;;;12.29;100.00
21781;BME280;52576;53.614;9.894;2022-10-17T03:49:33;101423.50;;;12.29;100.00
21781;BME280;52576;53.614;9.894;2022-10-17T03:50:36;101428.03;;;12.28;100.00
21781;BME280;52576;53.614;9.894;2022-10-17T03:51:39;101424.53;;;12.28;100.00
21781;BME280;52576;53.614;9.894;2022-10-17T03:52:46;101427.41;;;12.26;100.00
21781;BME280;52576;53.614;9.894;2022-10-17T03:53:48;101428.63;;;12.24;100.00
21781;BME280;52576;53.614;9.894;2022-10-17T03:54:51;101424.28;;;12.23;100.00
21781;BME280;52576;53.614;9.894;2022-10-17T03:55:54;101428.00;;;12.22;100.00
21781;BME280;52576;53.614;9.894;2022-10-17T03:56:57;101429.84;;;12.21;100.00
21781;BME280;52576;53.614;9.894;2022-10-17T03:57:59;101428.22;;;12.20;100.00
21781;BME280;52576;53.614;9.894;2022-10-17T03:59:02;101424.69;;;12.20;100.00
21781;BME280;52576;53.614;9.894;2022-10-17T04:00:08;101420.38;;;12.19;100.00
21781;BME280;52576;53.614;9.894;2022-10-17T04:01:24;101422.41;;;12.17;100.00
21781;BME280;52576;53.614;9.894;2022-10-17T04:02:26;101426.72;;;12.18;100.00
21781;BME280;52576;53.614;9.894;2022-10-17T04:03:29;101419.72;;;12.17;100.00
21781;BME280;52576;53.614;9.894;2022-10-17T04:04:31;101427.78;;;12.17;100.00
21781;BME280;52576;53.614;9.894;2022-10-17T04:05:33;101426.09;;;12.16;100.00
21781;BME280;52576;53.614;9.894;2022-10-17T04:06:36;101420.13;;;12.14;100.00
21781;BME280;52576;53.614;9.894;2022-10-17T04:07:41;101424.44;;;12.15;100.00
21781;BME280;52576;53.614;9.894;2022-10-17T04:08:44;101425.50;;;12.14;100.00
21781;BME280;52576;53.614;9.894;2022-10-17T04:09:51;101424.66;;;12.13;100.00
21781;BME280;52576;53.614;9.894;2022-10-17T04:10:57;101412.25;;;12.12;100.00
21781;BME280;52576;53.614;9.894;2022-10-17T04:12:00;101418.44;;;12.13;100.00
21781;BME280;52576;53.614;9.894;2022-10-17T04:13:05;101422.19;;;12.12;100.00
21781;BME280;52576;53.614;9.894;2022-10-17T04:14:08;101422.38;;;12.10;100.00
21781;BME280;52576;53.614;9.894;2022-10-17T04:15:13;101414.53;;;12.09;100.00
21781;BME280;52576;53.614;9.894;2022-10-17T04:16:16;101418.03;;;12.09;100.00
21781;BME280;52576;53.614;9.894;2022-10-17T04:17:26;101416.38;;;12.08;100.00
21781;BME280;52576;53.614;9.894;2022-10-17T04:18:29;101415.53;;;12.08;100.00
21781;BME280;52576;53.614;9.894;2022-10-17T04:19:31;101419.06;;;12.08;100.00
21781;BME280;52576;53.614;9.894;2022-10-17T04:20:35;101412.03;;;12.07;100.00
21781;BME280;52576;53.614;9.894;2022-10-17T04:21:37;101417.38;;;12.07;100.00
21781;BME280;52576;53.614;9.894;2022-10-17T04:22:43;101421.94;;;12.07;100.00
21781;BME280;52576;53.614;9.894;2022-10-17T04:23:44;101427.31;;;12.07;100.00
21781;BME280;52576;53.614;9.894;2022-10-17T04:25:01;101420.06;;;12.07;100.00
21781;BME280;52576;53.614;9.894;2022-10-17T04:26:08;101418.41;;;12.06;100.00
21781;BME280;52576;53.614;9.894;2022-10-17T04:27:10;101414.69;;;12.07;100.00
21781;BME280;52576;53.614;9.894;2022-10-17T04:28:17;101415.53;;;12.08;100.00
21781;BME280;52576;53.614;9.894;2022-10-17T04:29:20;101413.69;;;12.08;100.00
21781;BME280;52576;53.614;9.894;2022-10-17T04:30:24;101408.34;;;12.08;100.00
21781;BME280;52576;53.614;9.894;2022-10-17T04:31:27;101406.50;;;12.09;100.00
21781;BME280;52576;53.614;9.894;2022-10-17T04:32:38;101408.97;;;12.10;100.00
21781;BME280;52576;53.614;9.894;2022-10-17T04:33:52;101406.28;;;12.10;100.00
21781;BME280;52576;53.614;9.894;2022-10-17T04:34:54;101400.72;;;12.12;100.00
21781;BME280;52576;53.614;9.894;2022-10-17T04:35:58;101402.56;;;12.11;100.00
21781;BME280;52576;53.614;9.894;2022-10-17T04:37:01;101404.22;;;12.12;100.00
21781;BME280;52576;53.614;9.894;2022-10-17T04:38:06;101402.16;;;12.14;100.00
21781;BME280;52576;53.614;9.894;2022-10-17T04:39:08;101394.31;;;12.13;100.00
21781;BME280;52576;53.614;9.894;2022-10-17T04:40:12;101403.00;;;12.15;100.00
21781;BME280;52576;53.614;9.894;2022-10-17T04:41:16;101396.59;;;12.16;100.00
21781;BME280;52576;53.614;9.894;2022-10-17T04:42:20;101393.72;;;12.17;100.00
21781;BME280;52576;53.614;9.894;2022-10-17T04:43:23;101401.16;;;12.15;100.00
21781;BME280;52576;53.614;9.894;2022-10-17T04:44:27;101400.75;;;12.18;100.00
21781;BME280;52576;53.614;9.894;2022-10-17T04:45:32;101403.44;;;12.18;100.00
21781;BME280;52576;53.614;9.894;2022-10-17T04:46:37;101400.97;;;12.17;100.00
21781;BME280;52576;53.614;9.894;2022-10-17T04:47:40;101399.09;;;12.17;100.00
21781;BME280;52576;53.614;9.894;2022-10-17T04:48:43;101391.03;;;12.17;100.00
21781;BME280;52576;53.614;9.894;2022-10-17T04:49:46;101394.75;;;12.16;100.00
21781;BME280;52576;53.614;9.894;2022-10-17T04:50:53;101395.78;;;12.15;100.00
21781;BME280;52576;53.614;9.894;2022-10-17T04:52:19;101397.63;;;12.15;100.00
21781;BME280;52576;53.614;9.894;2022-10-17T04:53:26;101399.28;;;12.16;100.00
21781;BME280;52576;53.614;9.894;2022-10-17T04:54:29;101397.63;;;12.15;100.00
21781;BME280;52576;53.614;9.894;2022-10-17T04:55:39;101398.47;;;12.15;100.00
21781;BME280;52576;53.614;9.894;2022-10-17T04:56:42;101400.31;;;12.15;100.00
21781;BME280;52576;53.614;9.894;2022-10-17T04:57:45;101398.03;;;12.12;100.00
21781;BME280;52576;53.614;9.894;2022-10-17T04:58:53;101391.44;;;12.14;100.00
21781;BME280;52576;53.614;9.894;2022-10-17T04:59:57;101392.47;;;12.13;100.00
21781;BME280;52576;53.614;9.894;2022-10-17T05:01:15;101397.22;;;12.11;100.00
21781;BME280;52576;53.614;9.894;2022-10-17T05:02:23;101401.72;;;12.11;100.00
21781;BME280;52576;53.614;9.894;2022-10-17T05:03:25;101393.69;;;12.11;100.00
21781;BME280;52576;53.614;9.894;2022-10-17T05:04:28;101400.94;;;12.10;100.00
21781;BME280;52576;53.614;9.894;2022-10-17T05:05:32;101400.28;;;12.08;100.00
21781;BME280;52576;53.614;9.894;2022-10-17T05:06:36;101398.44;;;12.09;100.00
21781;BME280;52576;53.614;9.894;2022-10-17T05:07:51;101399.44;;;12.08;100.00
21781;BME280;52576;53.614;9.894;2022-10-17T05:08:58;101400.50;;;12.07;100.00
21781;BME280;52576;53.614;9.894;2022-10-17T05:10:01;101399.66;;;12.06;100.00
21781;BME280;52576;53.614;9.894;2022-10-17T05:11:15;101391.81;;;12.05;100.00
21781;BME280;52576;53.614;9.894;2022-10-17T05:12:18;101396.34;;;12.04;100.00
21781;BME280;52576;53.614;9.894;2022-10-17T05:13:21;101384.81;;;12.04;100.00
21781;BME280;52576;53.614;9.894;2022-10-17T05:14:25;101388.91;;;12.00;100.00
21781;BME280;52576;53.614;9.894;2022-10-17T05:15:27;101392.22;;;12.02;100.00
21781;BME280;52576;53.614;9.894;2022-10-17T05:16:30;101383.34;;;12.01;100.00
21781;BME280;52576;53.614;9.894;2022-10-17T05:17:33;101380.84;;;12.00;100.00
21781;BME280;52576;53.614;9.894;2022-10-17T05:18:35;101387.25;;;11.99;100.00
21781;BME280;52576;53.614;9.894;2022-10-17T05:19:38;101377.34;;;11.99;100.00
21781;BME280;52576;53.614;9.894;2022-10-17T05:20:41;101381.06;;;11.98;100.00
21781;BME280;52576;53.614;9.894;2022-10-17T05:21:44;101382.91;;;11.98;100.00
21781;BME280;52576;53.614;9.894;2022-10-17T05:22:46;101386.41;;;11.98;100.00
21781;BME280;52576;53.614;9.894;2022-10-17T05:23:50;101380.41;;;11.96;100.00
21781;BME280;52576;53.614;9.894;2022-10-17T05:24:53;101380.63;;;11.95;100.00
21781;BME280;52576;53.614;9.894;2022-10-17T05:25:57;101380.63;;;11.95;100.00
21781;BME280;52576;53.614;9.894;2022-10-17T05:27:00;101390.50;;;11.94;100.00
21781;BME280;52576;53.614;9.894;2022-10-17T05:28:04;101388.88;;;11.93;100.00
21781;BME280;52576;53.614;9.894;2022-10-17T05:29:06;101390.72;;;11.93;100.00
21781;BME280;52576;53.614;9.894;2022-10-17T05:30:13;101385.53;;;11.91;100.00
21781;BME280;52576;53.614;9.894;2022-10-17T05:31:15;101387.38;;;11.91;100.00
21781;BME280;52576;53.614;9.894;2022-10-17T05:32:18;101383.06;;;11.90;100.00
21781;BME280;52576;53.614;9.894;2022-10-17T05:33:21;101383.47;;;11.87;100.00
21781;BME280;52576;53.614;9.894;2022-10-17T05:34:25;101385.09;;;11.88;100.00
21781;BME280;52576;53.614;9.894;2022-10-17T05:35:27;101386.16;;;11.87;100.00
21781;BME280;52576;53.614;9.894;2022-10-17T05:36:30;101388.00;;;11.86;100.00
21781;BME280;52576;53.614;9.894;2022-10-17T05:37:35;101385.50;;;11.85;100.00
21781;BME280;52576;53.614;9.894;2022-10-17T05:38:38;101389.84;;;11.86;100.00
21781;BME280;52576;53.614;9.894;2022-10-17T05:39:41;101391.72;;;11.85;100.00
21781;BME280;52576;53.614;9.894;2022-10-17T05:40:45;101390.03;;;11.84;100.00
21781;BME280;52576;53.614;9.894;2022-10-17T05:41:48;101387.56;;;11.83;100.00